Time;durP1;ratioP1;P1;durP2;ratioP2;P2;SDS_P1;SDS_P2;PMS_P1;PMS_P2;Temp;Humidity;BMP_temperature;BMP_pressure;BME280_temperature;BME280_humidity;BME280_pressure;Samples;Min_cycle;Max_cycle;Signal;HPM_P1;HPM_P2
2022/10/20 00:02:05;;;;;;;16.25;12.85;;;13.90;85.40;;;;;;5098805;28;20024;-78
2022/10/20 00:04:31;;;;;;;20.98;13.15;;;13.80;85.20;;;;;;5098300;28;20076;-78
2022/10/20 00:06:56;;;;;;;20.02;11.48;;;13.90;85.30;;;;;;5098327;28;20388;-78
2022/10/20 00:09:22;;;;;;;14.20;11.20;;;13.90;85.10;;;;;;5098240;28;20072;-77
2022/10/20 00:11:47;;;;;;;20.60;11.85;;;13.80;85.00;;;;;;5098392;28;20030;-77
2022/10/20 00:14:13;;;;;;;15.38;11.40;;;13.80;84.90;;;;;;5098287;28;20167;-76
2022/10/20 00:16:39;;;;;;;19.70;11.50;;;13.80;85.00;;;;;;5098192;28;20539;-76
2022/10/20 00:19:05;;;;;;;13.25;10.40;;;13.80;84.90;;;;;;5098089;28;20032;-77
2022/10/20 00:21:31;;;;;;;14.90;10.80;;;13.90;84.90;;;;;;5096971;28;20372;-76
2022/10/20 00:24:01;;;;;;;14.02;9.88;;;13.90;84.70;;;;;;5097679;28;20048;-76
2022/10/20 00:26:29;;;;;;;13.52;9.98;;;13.90;84.80;;;;;;5098064;28;20492;-76
2022/10/20 00:28:55;;;;;;;13.88;9.75;;;14.00;84.50;;;;;;5115166;28;20032;-76
2022/10/20 00:31:22;;;;;;;16.17;11.20;;;13.90;84.60;;;;;;5114812;28;20027;-76
2022/10/20 00:33:48;;;;;;;14.20;10.05;;;14.00;84.40;;;;;;5114415;28;20042;-77
2022/10/20 00:36:16;;;;;;;13.35;10.07;;;14.00;84.50;;;;;;5114573;28;20039;-77
2022/10/20 00:38:42;;;;;;;15.75;10.75;;;14.00;84.30;;;;;;5115036;28;20031;-76
2022/10/20 00:41:10;;;;;;;16.08;11.13;;;14.10;84.50;;;;;;5114618;28;20391;-77
2022/10/20 00:43:48;;;;;;;18.90;11.40;;;14.00;85.40;;;;;;5114685;28;20035;-76
2022/10/20 00:46:20;;;;;;;15.77;11.40;;;14.00;84.70;;;;;;5114606;28;20051;-76
2022/10/20 00:48:56;;;;;;;15.20;11.57;;;14.00;84.70;;;;;;5114825;28;20023;-76
2022/10/20 00:51:26;;;;;;;14.20;10.38;;;13.90;84.80;;;;;;5114405;28;20019;-77
2022/10/20 00:53:54;;;;;;;14.25;11.95;;;13.90;85.00;;;;;;5114349;28;20391;-76
2022/10/20 00:56:21;;;;;;;20.60;11.60;;;13.90;85.10;;;;;;5114436;28;20353;-76
2022/10/20 00:58:47;;;;;;;16.02;12.18;;;13.90;85.10;;;;;;5114678;28;20051;-76
2022/10/20 01:01:13;;;;;;;16.45;11.65;;;13.90;85.20;;;;;;5114626;28;20072;-77
2022/10/20 01:03:45;;;;;;;15.38;10.85;;;13.90;85.30;;;;;;5097286;28;20391;-77
2022/10/20 01:06:13;;;;;;;20.13;11.40;;;14.00;85.30;;;;;;5115761;28;20095;-77
2022/10/20 01:08:39;;;;;;;17.70;12.40;;;13.90;85.40;;;;;;5114349;28;20092;-77
2022/10/20 01:11:07;;;;;;;15.43;11.43;;;13.90;85.80;;;;;;5114133;28;20023;-77
2022/10/20 01:14:03;;;;;;;16.25;11.93;;;13.90;85.80;;;;;;5113978;28;20036;-76
2022/10/20 01:16:41;;;;;;;;;;;13.90;85.70;;;;;;5114664;28;20030;-76
2022/10/20 01:19:35;;;;;;;18.33;12.60;;;13.90;86.00;;;;;;5113969;28;19903;-76
2022/10/20 01:22:13;;;;;;;19.25;12.15;;;13.80;86.00;;;;;;5114288;28;20163;-76
2022/10/20 01:24:47;;;;;;;17.67;12.32;;;13.90;86.10;;;;;;5114177;28;20038;-77
2022/10/20 01:27:51;;;;;;;18.40;13.48;;;13.80;86.20;;;;;;5115364;28;20027;-77
2022/10/20 01:30:22;;;;;;;17.55;12.50;;;13.80;86.30;;;;;;5075414;28;20515;-78
2022/10/20 01:33:12;;;;;;;19.13;13.60;;;13.80;86.40;;;;;;5107540;28;20067;-77
2022/10/20 01:35:45;;;;;;;21.10;14.18;;;13.70;86.50;;;;;;5113453;28;20051;-77
2022/10/20 01:38:40;;;;;;;18.02;13.60;;;13.70;86.60;;;;;;5113622;28;20076;-77
2022/10/20 01:41:31;;;;;;;19.42;13.55;;;13.70;86.90;;;;;;5113661;28;20024;-78
2022/10/20 01:43:58;;;;;;;21.55;12.98;;;13.70;87.10;;;;;;5113655;28;20027;-77
2022/10/20 01:46:25;;;;;;;19.17;13.50;;;13.70;87.00;;;;;;5113488;28;20023;-78
2022/10/20 01:48:51;;;;;;;20.38;13.52;;;13.70;87.00;;;;;;5113065;28;20046;-77
2022/10/20 01:51:16;;;;;;;18.83;14.20;;;13.70;87.10;;;;;;5113663;28;20468;-78
2022/10/20 01:53:42;;;;;;;21.73;13.55;;;13.60;87.20;;;;;;5113389;28;20365;-78
2022/10/20 01:56:17;;;;;;;19.60;13.48;;;13.60;87.60;;;;;;5113516;28;20108;-77
2022/10/20 01:59:05;;;;;;;23.20;14.52;;;13.60;87.70;;;;;;5113629;28;20487;-78
2022/10/20 02:01:52;;;;;;;19.17;13.65;;;13.60;87.80;;;;;;5113281;28;20028;-77
2022/10/20 02:04:27;;;;;;;20.85;14.20;;;13.60;87.80;;;;;;5113308;28;20031;-77
2022/10/20 02:06:58;;;;;;;;;;;13.60;88.70;;;;;;5113366;28;20051;-77
2022/10/20 02:09:37;;;;;;;19.95;14.38;;;13.50;88.00;;;;;;5113070;28;19903;-77
2022/10/20 02:12:07;;;;;;;19.52;14.48;;;13.60;88.00;;;;;;5112830;28;20023;-77
2022/10/20 02:14:35;;;;;;;21.85;13.50;;;13.60;88.00;;;;;;5113168;28;20036;-77
2022/10/20 02:17:05;;;;;;;19.20;13.52;;;13.60;88.00;;;;;;5113127;28;20024;-77
2022/10/20 02:19:37;;;;;;;19.45;14.45;;;13.60;88.00;;;;;;5113075;28;20027;-77
2022/10/20 02:22:04;;;;;;;20.27;14.68;;;13.50;88.20;;;;;;5112906;28;20016;-77
2022/10/20 02:24:35;;;;;;;22.23;13.70;;;13.50;88.30;;;;;;5112799;28;20031;-77
2022/10/20 02:27:04;;;;;;;21.63;15.00;;;13.50;88.20;;;;;;5112711;28;20034;-77
2022/10/20 02:29:35;;;;;;;20.42;13.98;;;13.50;88.30;;;;;;5112830;28;20024;-77
2022/10/20 02:32:01;;;;;;;22.95;14.15;;;13.50;88.20;;;;;;5112794;28;20027;-78
2022/10/20 02:34:27;;;;;;;19.38;14.10;;;13.50;88.30;;;;;;5112404;28;20055;-77
2022/10/20 02:36:57;;;;;;;17.63;13.15;;;13.50;88.20;;;;;;5112589;28;20177;-78
2022/10/20 02:39:23;;;;;;;18.23;13.23;;;13.50;88.30;;;;;;5112267;28;20049;-78
2022/10/20 02:41:49;;;;;;;21.35;13.93;;;13.50;88.20;;;;;;5112869;28;20047;-77
2022/10/20 02:44:14;;;;;;;20.10;14.00;;;13.50;88.10;;;;;;5113038;28;20356;-77
2022/10/20 02:46:40;;;;;;;17.00;13.15;;;13.50;88.00;;;;;;5112129;28;20020;-77
2022/10/20 02:49:06;;;;;;;19.15;13.68;;;13.50;88.90;;;;;;5112359;28;20033;-78
2022/10/20 02:51:31;;;;;;;18.20;13.25;;;13.50;88.00;;;;;;5112136;28;20019;-77
2022/10/20 02:53:57;;;;;;;18.67;13.25;;;13.50;87.90;;;;;;5112159;28;20071;-76
2022/10/20 02:56:22;;;;;;;18.58;13.57;;;13.50;88.00;;;;;;5114506;28;20037;-78
2022/10/20 02:58:48;;;;;;;18.30;11.95;;;13.50;88.00;;;;;;5114851;28;20430;-76
2022/10/20 03:01:14;;;;;;;17.83;13.23;;;13.50;88.00;;;;;;5112841;28;20077;-78
2022/10/20 03:03:40;;;;;;;22.02;13.07;;;13.50;88.00;;;;;;5112349;28;20070;-78
2022/10/20 03:06:14;;;;;;;19.70;13.43;;;13.50;88.00;;;;;;5112413;28;20391;-78
2022/10/20 03:08:40;;;;;;;16.45;13.05;;;13.50;87.90;;;;;;5112598;28;20020;-77
2022/10/20 03:11:06;;;;;;;18.85;13.88;;;13.50;88.00;;;;;;5113367;28;20023;-76
2022/10/20 03:13:32;;;;;;;17.30;12.32;;;13.40;88.10;;;;;;5112713;28;20491;-77
2022/10/20 03:15:59;;;;;;;21.67;14.15;;;13.50;88.20;;;;;;5113505;28;20048;-78
2022/10/20 03:18:24;;;;;;;19.30;12.70;;;13.50;88.10;;;;;;5112674;28;20035;-76
2022/10/20 03:20:52;;;;;;;16.80;12.13;;;13.50;88.10;;;;;;5113175;28;20020;-78
2022/10/20 03:23:18;;;;;;;18.55;13.30;;;13.50;88.00;;;;;;5095466;28;20502;-77
2022/10/20 03:25:44;;;;;;;15.52;12.35;;;13.50;88.00;;;;;;5113207;28;20027;-78
2022/10/20 03:28:12;;;;;;;18.92;12.52;;;13.50;87.80;;;;;;5112857;28;20028;-77
2022/10/20 03:30:38;;;;;;;19.35;13.93;;;13.50;88.60;;;;;;5113596;28;20034;-78
2022/10/20 03:33:03;;;;;;;20.60;12.25;;;13.50;87.80;;;;;;5112968;28;20036;-78
2022/10/20 03:35:29;;;;;;;17.67;12.07;;;13.50;87.70;;;;;;5112510;28;20044;-77
2022/10/20 03:37:54;;;;;;;19.40;12.38;;;13.50;87.70;;;;;;5112454;28;20027;-79
2022/10/20 03:40:20;;;;;;;17.27;11.63;;;13.50;87.80;;;;;;5113122;28;20482;-77
2022/10/20 03:42:46;;;;;;;15.48;11.80;;;13.50;87.80;;;;;;5113463;28;20023;-78
2022/10/20 03:45:11;;;;;;;16.35;11.50;;;13.50;87.70;;;;;;5111838;28;20020;-77
2022/10/20 03:47:37;;;;;;;18.52;12.90;;;13.50;88.40;;;;;;5111902;28;20027;-76
2022/10/20 03:50:03;;;;;;;17.55;12.60;;;13.50;87.70;;;;;;5111939;28;20023;-76
2022/10/20 03:52:29;;;;;;;18.70;13.00;;;13.50;87.70;;;;;;5111385;28;20024;-77
2022/10/20 03:54:54;;;;;;;17.13;12.50;;;13.40;87.80;;;;;;5111737;28;20036;-77
2022/10/20 03:57:20;;;;;;;17.77;12.00;;;13.40;87.80;;;;;;5114376;28;20154;-77
2022/10/20 03:59:46;;;;;;;17.20;12.30;;;13.50;87.90;;;;;;5115230;28;20494;-77
2022/10/20 04:02:31;;;;;;;21.25;13.23;;;13.40;87.70;;;;;;5115233;28;20403;-77
2022/10/20 04:04:56;;;;;;;18.55;12.57;;;13.40;87.80;;;;;;5115096;28;20111;-77
2022/10/20 04:07:22;;;;;;;16.70;12.27;;;13.40;88.40;;;;;;5115408;28;20168;-77
2022/10/20 04:09:47;;;;;;;18.58;13.30;;;13.40;87.70;;;;;;5115518;28;20020;-77
2022/10/20 04:12:13;;;;;;;19.42;13.68;;;13.40;87.50;;;;;;5115409;28;20023;-77
2022/10/20 04:14:39;;;;;;;16.95;12.65;;;13.40;87.50;;;;;;5114781;28;20027;-77
2022/10/20 04:17:05;;;;;;;19.98;13.23;;;13.40;87.60;;;;;;5115221;28;20110;-76
2022/10/20 04:19:31;;;;;;;19.38;12.65;;;13.40;87.40;;;;;;5115000;28;20114;-78
2022/10/20 04:21:57;;;;;;;17.52;12.95;;;13.40;87.50;;;;;;5115246;28;20059;-78
2022/10/20 04:24:22;;;;;;;17.77;13.18;;;13.40;88.50;;;;;;5115279;28;20469;-78
2022/10/20 04:26:48;;;;;;;17.17;11.95;;;13.40;87.70;;;;;;5115061;28;20056;-78
2022/10/20 04:29:13;;;;;;;17.25;12.88;;;13.40;87.50;;;;;;5114923;28;20080;-77
2022/10/20 04:31:39;;;;;;;17.45;12.82;;;13.40;87.60;;;;;;5114645;28;20068;-77
2022/10/20 04:34:04;;;;;;;15.95;11.35;;;13.40;87.70;;;;;;5115777;27;20418;-77
2022/10/20 04:36:30;;;;;;;15.90;11.80;;;13.40;87.60;;;;;;5117954;27;20049;-78
2022/10/20 04:38:56;;;;;;;16.27;11.75;;;13.40;87.50;;;;;;5117853;27;20026;-77
2022/10/20 04:41:21;;;;;;;15.68;11.93;;;13.40;87.40;;;;;;5117956;27;20039;-77
2022/10/20 04:43:51;;;;;;;18.33;13.05;;;13.40;87.40;;;;;;5117765;27;20467;-76
2022/10/20 04:46:18;;;;;;;16.33;12.50;;;13.50;87.20;;;;;;5118215;27;20485;-76
2022/10/20 04:48:43;;;;;;;17.80;11.40;;;13.40;87.10;;;;;;5117870;27;20118;-75
2022/10/20 04:51:12;;;;;;;14.68;10.80;;;13.40;87.20;;;;;;5117955;27;20477;-75
2022/10/20 04:53:38;;;;;;;17.73;12.00;;;13.40;87.20;;;;;;5117652;27;20441;-76
2022/10/20 04:56:05;;;;;;;16.02;12.52;;;13.40;87.20;;;;;;5117608;27;20058;-76
2022/10/20 04:58:32;;;;;;;18.92;13.40;;;13.40;87.10;;;;;;5117650;27;20099;-76
2022/10/20 05:01:03;;;;;;;19.63;13.32;;;13.40;88.00;;;;;;5117535;27;20024;-76
2022/10/20 05:03:29;;;;;;;20.98;14.05;;;13.40;87.20;;;;;;5117707;27;20025;-75
2022/10/20 05:06:05;;;;;;;19.05;12.68;;;13.30;87.20;;;;;;5117606;27;20471;-75
2022/10/20 05:08:31;;;;;;;18.73;12.68;;;13.30;87.20;;;;;;5116853;27;20114;-76
2022/10/20 05:10:59;;;;;;;22.05;13.95;;;13.40;87.30;;;;;;5117516;27;20114;-76
2022/10/20 05:13:26;;;;;;;19.70;12.90;;;13.40;87.10;;;;;;5117024;27;20043;-76
2022/10/20 05:15:52;;;;;;;18.70;12.55;;;13.40;87.20;;;;;;5117428;27;20132;-76
2022/10/20 05:18:19;;;;;;;17.67;12.30;;;13.30;87.00;;;;;;5116936;27;20026;-76
2022/10/20 05:20:44;;;;;;;19.17;13.52;;;13.40;87.00;;;;;;5117213;27;20027;-77
2022/10/20 05:23:10;;;;;;;18.20;12.23;;;13.30;87.00;;;;;;5117265;27;20023;-76
2022/10/20 05:25:37;;;;;;;19.15;12.48;;;13.30;88.10;;;;;;5116684;27;20034;-76
2022/10/20 05:28:03;;;;;;;16.92;11.52;;;13.30;87.40;;;;;;5116475;27;20027;-76
2022/10/20 05:30:30;;;;;;;18.23;12.32;;;13.30;87.20;;;;;;5134865;27;20019;-76
2022/10/20 05:32:55;;;;;;;15.70;12.25;;;13.30;87.00;;;;;;5116757;27;20039;-75
2022/10/20 05:35:21;;;;;;;16.88;11.55;;;13.30;87.10;;;;;;5116672;27;20039;-75
2022/10/20 05:37:46;;;;;;;20.45;12.98;;;13.30;87.10;;;;;;5116859;27;20019;-75
2022/10/20 05:40:12;;;;;;;17.77;11.95;;;13.30;87.10;;;;;;5116687;27;20061;-75
2022/10/20 05:42:38;;;;;;;15.10;11.10;;;13.30;88.00;;;;;;5115548;27;20090;-75
2022/10/20 05:45:04;;;;;;;13.55;10.88;;;13.30;87.00;;;;;;5116401;27;20042;-75
2022/10/20 05:47:30;;;;;;;17.77;11.43;;;13.30;86.80;;;;;;5116393;27;20046;-75
2022/10/20 05:49:56;;;;;;;16.77;10.98;;;13.30;87.50;;;;;;5116538;27;20361;-76
2022/10/20 05:52:22;;;;;;;15.98;10.65;;;13.30;86.60;;;;;;5116342;27;20490;-76
2022/10/20 05:54:47;;;;;;;16.92;10.13;;;13.30;86.70;;;;;;5116421;27;20030;-77
2022/10/20 05:57:13;;;;;;;12.32;10.00;;;13.30;86.50;;;;;;5116111;27;20027;-76
2022/10/20 05:59:39;;;;;;;14.75;8.93;;;13.30;86.50;;;;;;5116235;27;20351;-76
2022/10/20 06:02:05;;;;;;;13.60;9.55;;;13.30;86.70;;;;;;5116285;27;20015;-76
2022/10/20 06:04:30;;;;;;;11.38;8.90;;;13.30;86.40;;;;;;5115956;27;20076;-76
2022/10/20 06:06:58;;;;;;;12.35;7.85;;;13.30;86.00;;;;;;5115853;27;20023;-76
2022/10/20 06:09:23;;;;;;;10.68;8.10;;;13.30;85.90;;;;;;5115715;27;20026;-77
2022/10/20 06:11:50;;;;;;;12.95;8.10;;;13.40;85.50;;;;;;5115838;27;20019;-76
2022/10/20 06:14:17;;;;;;;11.18;7.68;;;13.50;85.20;;;;;;5116062;27;20125;-77
2022/10/20 06:16:42;;;;;;;11.05;8.43;;;13.50;85.10;;;;;;5115826;27;20027;-77
2022/10/20 06:19:09;;;;;;;11.68;7.50;;;13.50;84.80;;;;;;5115631;28;20117;-77
2022/10/20 06:21:36;;;;;;;11.90;8.93;;;13.60;84.50;;;;;;5115351;27;20023;-76
2022/10/20 06:24:03;;;;;;;11.80;8.65;;;13.60;84.50;;;;;;5115509;27;20027;-77
2022/10/20 06:26:31;;;;;;;11.60;8.40;;;13.60;84.80;;;;;;5114994;27;20019;-77
2022/10/20 06:28:58;;;;;;;11.18;8.45;;;13.70;84.70;;;;;;5134127;27;20027;-76
2022/10/20 06:31:25;;;;;;;11.60;8.20;;;13.60;84.50;;;;;;5098683;27;20123;-76
2022/10/20 06:33:51;;;;;;;9.68;7.30;;;13.60;84.50;;;;;;5115931;27;20065;-76
2022/10/20 06:36:18;;;;;;;14.30;7.63;;;13.70;84.20;;;;;;5112216;28;20514;-76
2022/10/20 06:38:44;;;;;;;12.02;8.43;;;13.70;83.90;;;;;;5112246;28;20475;-77
2022/10/20 06:41:16;;;;;;;9.88;7.38;;;13.70;83.70;;;;;;5112077;28;20543;-76
2022/10/20 06:43:43;;;;;;;12.35;8.18;;;13.80;83.50;;;;;;5112372;28;20529;-77
2022/10/20 06:46:15;;;;;;;11.43;8.15;;;13.70;83.60;;;;;;5112175;28;20031;-77
2022/10/20 06:48:41;;;;;;;14.30;8.07;;;13.70;83.70;;;;;;5112098;28;20391;-76
2022/10/20 06:51:11;;;;;;;13.63;8.75;;;13.80;83.90;;;;;;5112066;28;20024;-77
2022/10/20 06:53:38;;;;;;;11.70;8.23;;;13.70;84.20;;;;;;5111911;28;20027;-77
2022/10/20 06:56:10;;;;;;;12.85;7.50;;;13.90;84.20;;;;;;5112401;28;20026;-76
2022/10/20 06:58:37;;;;;;;13.60;8.43;;;13.80;83.80;;;;;;5111740;28;20020;-76
2022/10/20 07:01:17;;;;;;;11.23;7.85;;;13.90;83.70;;;;;;5111676;28;20068;-77
2022/10/20 07:03:45;;;;;;;10.15;8.23;;;14.00;83.70;;;;;;5111705;28;20020;-82
2022/10/20 07:06:27;;;;;;;12.80;7.65;;;14.00;83.50;;;;;;5094911;28;20487;-84
2022/10/20 07:09:07;;;;;;;12.48;7.55;;;14.20;86.40;;;;;;5095754;28;20032;-82
2022/10/20 07:11:39;;;;;;;9.73;6.00;;;14.50;84.30;;;;;;5112191;28;20035;-80
2022/10/20 07:14:05;;;;;;;9.15;6.10;;;14.70;83.00;;;;;;5110865;28;20128;-81
2022/10/20 07:16:41;;;;;;;9.75;5.97;;;14.90;79.90;;;;;;5077742;28;20036;-82
2022/10/20 07:19:18;;;;;;;11.48;6.55;;;15.00;79.80;;;;;;5077675;28;20380;-83
2022/10/20 07:22:07;;;;;;;6.60;5.97;;;15.00;78.90;;;;;;5112937;28;20035;-85
2022/10/20 07:24:46;;;;;;;10.27;5.93;;;15.00;79.00;;;;;;5111348;28;20163;-84
2022/10/20 07:27:17;;;;;;;8.60;5.40;;;15.00;79.10;;;;;;5110888;28;20073;-85
2022/10/20 07:29:43;;;;;;;10.32;6.20;;;15.00;78.90;;;;;;5113195;28;20019;-85
2022/10/20 07:32:10;;;;;;;10.77;5.50;;;15.20;78.80;;;;;;5114247;28;20111;-86
2022/10/20 07:34:48;;;;;;;11.63;5.60;;;15.30;78.50;;;;;;5116142;28;20063;-85
2022/10/20 07:37:20;;;;;;;9.75;4.82;;;15.50;77.80;;;;;;5116202;28;20020;-85
2022/10/20 07:40:12;;;;;;;7.55;5.95;;;15.60;77.00;;;;;;5115840;28;20028;-85
2022/10/20 07:42:41;;;;;;;8.35;5.55;;;15.80;75.80;;;;;;5115042;28;20376;-84
2022/10/20 07:45:20;;;;;;;6.15;4.72;;;15.90;76.60;;;;;;5099617;28;20076;-84
2022/10/20 07:47:45;;;;;;;12.15;4.82;;;15.90;75.50;;;;;;5115652;28;20023;-85
2022/10/20 07:50:12;;;;;;;6.50;4.90;;;15.90;75.30;;;;;;5115331;28;20446;-85
2022/10/20 07:52:43;;;;;;;5.72;4.68;;;16.00;75.20;;;;;;5098151;28;20123;-85
2022/10/20 07:55:10;;;;;;;6.97;5.30;;;16.10;74.70;;;;;;5098307;28;20035;-83
2022/10/20 07:58:03;;;;;;;7.70;4.43;;;16.30;74.00;;;;;;5114658;28;20498;-80
2022/10/20 08:00:29;;;;;;;5.60;4.43;;;16.30;74.00;;;;;;5115868;28;20124;-85
2022/10/20 08:02:54;;;;;;;6.82;3.85;;;16.40;73.00;;;;;;5114914;28;20398;-75
2022/10/20 08:05:20;;;;;;;7.00;4.20;;;16.40;73.00;;;;;;5114924;28;20016;-75
2022/10/20 08:07:45;;;;;;;6.20;3.97;;;16.40;73.70;;;;;;5115170;28;20031;-75
2022/10/20 08:10:11;;;;;;;7.80;4.35;;;16.40;73.60;;;;;;5114904;28;20020;-75
2022/10/20 08:12:37;;;;;;;4.68;3.17;;;16.40;73.10;;;;;;5114879;28;20044;-75
2022/10/20 08:15:03;;;;;;;5.20;3.80;;;16.40;73.60;;;;;;5109538;28;20423;-75
2022/10/20 08:17:29;;;;;;;5.90;3.58;;;16.30;73.70;;;;;;5114166;28;20069;-74
2022/10/20 08:19:54;;;;;;;4.72;3.70;;;16.40;73.80;;;;;;5114763;28;20036;-74
2022/10/20 08:22:20;;;;;;;8.70;4.47;;;16.40;73.70;;;;;;5114910;28;20100;-75
2022/10/20 08:24:46;;;;;;;7.35;3.58;;;16.50;73.70;;;;;;5114706;28;20603;-74
2022/10/20 08:27:12;;;;;;;5.80;3.25;;;16.70;73.50;;;;;;5114519;28;20030;-76
2022/10/20 08:29:38;;;;;;;4.75;3.50;;;16.90;72.60;;;;;;5113971;28;20019;-74
2022/10/20 08:32:04;;;;;;;7.15;3.80;;;17.00;72.00;;;;;;5114249;28;20360;-75
2022/10/20 08:34:30;;;;;;;4.32;2.97;;;17.10;72.00;;;;;;5114397;28;20506;-75
2022/10/20 08:36:56;;;;;;;7.18;3.17;;;17.20;71.20;;;;;;5114455;28;20031;-74
2022/10/20 08:39:22;;;;;;;4.05;2.80;;;17.30;71.10;;;;;;5114155;28;20416;-74
2022/10/20 08:41:49;;;;;;;6.22;3.15;;;17.50;70.60;;;;;;5114456;28;20019;-75
2022/10/20 08:44:30;;;;;;;5.38;3.42;;;17.60;69.50;;;;;;5113793;28;20019;-75
2022/10/20 08:46:56;;;;;;;5.40;3.65;;;17.50;69.60;;;;;;5115102;28;20032;-75
2022/10/20 08:49:24;;;;;;;5.60;3.17;;;17.40;71.00;;;;;;5114247;28;20027;-75
2022/10/20 08:51:52;;;;;;;10.07;4.18;;;17.40;71.20;;;;;;5114436;28;20031;-76
2022/10/20 08:54:17;;;;;;;9.30;4.00;;;17.30;72.50;;;;;;5114172;28;20384;-75
2022/10/20 08:56:44;;;;;;;12.43;4.28;;;17.10;72.60;;;;;;5114203;28;20027;-75
2022/10/20 08:59:32;;;;;;;9.07;3.97;;;17.20;72.70;;;;;;5114288;28;20440;-75
2022/10/20 09:01:57;;;;;;;11.88;4.25;;;17.40;72.00;;;;;;5114188;28;20027;-75
2022/10/20 09:04:33;;;;;;;7.97;4.43;;;17.50;71.40;;;;;;5109431;28;20020;-75
2022/10/20 09:07:04;;;;;;;8.40;3.97;;;17.50;71.20;;;;;;5104008;28;20030;-75
2022/10/20 09:09:32;;;;;;;5.15;3.80;;;17.60;71.40;;;;;;5104434;28;20821;-75
2022/10/20 09:12:12;;;;;;;5.47;3.60;;;17.60;71.60;;;;;;5103739;28;20021;-76
2022/10/20 09:14:37;;;;;;;11.30;4.00;;;17.70;71.30;;;;;;5122692;27;20055;-76
2022/10/20 09:17:03;;;;;;;7.47;4.05;;;17.90;70.60;;;;;;5103690;28;20054;-76
2022/10/20 09:19:29;;;;;;;7.60;2.72;;;18.20;69.40;;;;;;5104205;28;20103;-77
2022/10/20 09:22:02;;;;;;;11.75;3.20;;;18.30;68.60;;;;;;5120834;27;20511;-75
2022/10/20 09:24:29;;;;;;;6.32;2.58;;;18.40;67.30;;;;;;5103843;28;20106;-75
2022/10/20 09:26:55;;;;;;;6.32;2.92;;;18.60;67.00;;;;;;5103805;28;20066;-75
2022/10/20 09:29:32;;;;;;;5.38;2.80;;;18.70;66.80;;;;;;5113665;27;20047;-75
2022/10/20 09:31:58;;;;;;;4.18;2.28;;;18.60;67.60;;;;;;5093269;28;20111;-75
2022/10/20 09:34:27;;;;;;;9.25;3.08;;;18.60;66.70;;;;;;5096411;28;20138;-75
2022/10/20 09:37:03;;;;;;;7.80;3.10;;;18.60;67.50;;;;;;5113232;28;20022;-75
2022/10/20 09:39:51;;;;;;;5.80;3.33;;;18.60;67.30;;;;;;5113281;28;20030;-76
2022/10/20 09:42:35;;;;;;;10.35;4.07;;;18.40;68.40;;;;;;5112170;28;20031;-76
2022/10/20 09:45:11;;;;;;;9.88;4.07;;;18.30;69.20;;;;;;5112931;28;20095;-76
2022/10/20 09:47:43;;;;;;;14.65;5.05;;;18.20;69.30;;;;;;5112821;28;20019;-75
2022/10/20 09:50:19;;;;;;;6.25;4.45;;;18.30;69.90;;;;;;5112832;28;20360;-74
2022/10/20 09:52:48;;;;;;;7.65;4.90;;;18.20;70.20;;;;;;5112940;28;20043;-74
2022/10/20 09:55:34;;;;;;;7.72;4.78;;;18.20;70.20;;;;;;5114364;28;20047;-74
2022/10/20 09:58:02;;;;;;;12.60;4.47;;;18.20;70.20;;;;;;5112860;28;20026;-73
2022/10/20 10:00:45;;;;;;;5.90;3.88;;;18.30;70.50;;;;;;5113008;28;20121;-76
2022/10/20 10:03:19;;;;;;;7.07;3.85;;;18.40;70.70;;;;;;5112271;28;20027;-78
2022/10/20 10:05:50;;;;;;;11.80;4.65;;;18.40;70.90;;;;;;5112628;28;20119;-76
2022/10/20 10:08:16;;;;;;;8.10;4.32;;;18.40;70.50;;;;;;5112363;28;20498;-77
2022/10/20 10:10:44;;;;;;;7.45;4.90;;;18.50;70.50;;;;;;5112419;28;20384;-77
2022/10/20 10:13:25;;;;;;;8.07;4.85;;;18.50;70.80;;;;;;5111865;28;20415;-77
2022/10/20 10:16:07;;;;;;;8.77;5.45;;;18.60;70.60;;;;;;5111954;28;20513;-77
2022/10/20 10:18:35;;;;;;;6.00;4.15;;;18.60;69.90;;;;;;5111790;28;20023;-75
2022/10/20 10:21:14;;;;;;;5.20;4.05;;;18.70;69.50;;;;;;5112035;28;20024;-75
2022/10/20 10:23:59;;;;;;;6.80;3.72;;;18.70;69.00;;;;;;5111932;28;20076;-76
2022/10/20 10:26:33;;;;;;;8.23;4.17;;;18.80;68.80;;;;;;5111683;28;20024;-76
2022/10/20 10:28:59;;;;;;;10.40;4.82;;;18.90;68.60;;;;;;5111792;28;20143;-76
2022/10/20 10:31:25;;;;;;;6.10;4.20;;;18.90;68.60;;;;;;5111836;28;20175;-76
2022/10/20 10:34:14;;;;;;;6.55;3.72;;;18.90;68.80;;;;;;5111705;28;20031;-76
2022/10/20 10:36:39;;;;;;;5.78;3.83;;;19.00;69.00;;;;;;5070051;28;20039;-78
2022/10/20 10:39:11;;;;;;;4.97;3.92;;;19.00;68.70;;;;;;5111903;28;20084;-76
2022/10/20 10:41:49;;;;;;;8.27;3.97;;;19.00;68.70;;;;;;5111783;28;20020;-77
2022/10/20 10:44:40;;;;;;;10.10;4.03;;;19.00;68.60;;;;;;5112255;28;20031;-76
2022/10/20 10:47:40;;;;;;;8.80;3.88;;;19.00;68.40;;;;;;5111729;28;20020;-76
2022/10/20 10:50:25;;;;;;;6.95;3.50;;;19.00;68.10;;;;;;5111345;28;20023;-75
2022/10/20 10:53:28;;;;;;;10.13;3.60;;;19.10;68.20;;;;;;5111341;28;20349;-76
2022/10/20 10:56:10;;;;;;;5.68;3.03;;;19.20;67.20;;;;;;5111506;28;20034;-75
2022/10/20 10:58:58;;;;;;;9.95;2.90;;;19.40;66.60;;;;;;5095107;28;20566;-76
2022/10/20 11:02:05;;;;;;;7.25;3.15;;;19.40;66.80;;;;;;5111590;28;20066;-75
2022/10/20 11:05:19;;;;;;;5.03;2.40;;;19.30;67.10;;;;;;5113014;28;20087;-75
2022/10/20 11:08:00;;;;;;;7.72;3.22;;;19.20;67.50;;;;;;5112947;28;20571;-74
2022/10/20 11:10:55;;;;;;;6.97;2.53;;;19.20;67.40;;;;;;5113809;28;20042;-75
2022/10/20 11:13:30;;;;;;;6.38;3.40;;;19.10;67.70;;;;;;5117809;28;20031;-75
2022/10/20 11:16:14;;;;;;;7.22;3.17;;;19.10;69.10;;;;;;5114516;28;20087;-75
2022/10/20 11:18:43;;;;;;;5.35;2.78;;;19.10;68.50;;;;;;5111016;28;20452;-76
2022/10/20 11:21:36;;;;;;;8.00;3.42;;;19.00;68.30;;;;;;5111146;28;20314;-77
2022/10/20 11:24:08;;;;;;;4.45;3.15;;;19.10;68.20;;;;;;5111505;28;20028;-78
2022/10/20 11:26:43;;;;;;;4.93;2.92;;;19.10;68.40;;;;;;5111083;28;20026;-77
2022/10/20 11:29:27;;;;;;;9.45;3.63;;;19.30;68.40;;;;;;5112947;28;20027;-76
2022/10/20 11:32:21;;;;;;;6.32;3.50;;;19.40;68.60;;;;;;5111967;28;20052;-78
2022/10/20 11:35:09;;;;;;;4.78;2.70;;;19.50;68.30;;;;;;5111094;28;20073;-76
2022/10/20 11:37:49;;;;;;;4.85;3.05;;;19.60;68.00;;;;;;5112425;28;20072;-78
2022/10/20 11:40:22;;;;;;;4.97;2.80;;;19.80;68.10;;;;;;5111351;28;20456;-78
2022/10/20 11:43:04;;;;;;;6.18;3.28;;;19.90;68.00;;;;;;5111110;28;20030;-77
2022/10/20 11:46:03;;;;;;;6.85;3.20;;;20.20;67.50;;;;;;5111735;28;20027;-78
2022/10/20 11:48:35;;;;;;;8.18;3.13;;;20.20;65.80;;;;;;5112629;28;20026;-78
2022/10/20 11:51:21;;;;;;;11.57;3.72;;;20.10;66.80;;;;;;5111597;28;20110;-78
2022/10/20 11:54:18;;;;;;;6.82;3.63;;;20.10;66.20;;;;;;5111498;28;20071;-78
2022/10/20 11:57:13;;;;;;;6.47;3.70;;;20.20;66.00;;;;;;5111562;28;20065;-78
2022/10/20 11:59:44;;;;;;;9.00;3.47;;;20.10;65.90;;;;;;5113383;28;20034;-78
2022/10/20 12:02:22;;;;;;;14.27;4.00;;;20.10;66.30;;;;;;5124148;28;20019;-78
2022/10/20 12:05:00;;;;;;;13.60;3.90;;;20.10;66.40;;;;;;5132504;28;20019;-78
2022/10/20 12:07:51;;;;;;;7.10;3.47;;;20.00;64.90;;;;;;5132202;28;20030;-76
2022/10/20 12:10:57;;;;;;;8.38;3.72;;;19.90;64.70;;;;;;5131512;28;20024;-76
2022/10/20 12:13:30;;;;;;;6.22;3.38;;;19.80;64.40;;;;;;5112006;28;20044;-78
2022/10/20 12:15:56;;;;;;;10.00;3.10;;;19.70;65.20;;;;;;5131562;28;20118;-77
2022/10/20 12:18:26;;;;;;;8.40;3.60;;;19.70;66.00;;;;;;5132484;27;20058;-77
2022/10/20 12:21:03;;;;;;;6.80;3.50;;;19.60;66.30;;;;;;5135819;27;20535;-78
2022/10/20 12:23:52;;;;;;;10.40;3.38;;;19.60;65.80;;;;;;5138035;27;20034;-79
2022/10/20 12:26:31;;;;;;;6.15;3.58;;;19.60;66.20;;;;;;5136838;27;20539;-76
2022/10/20 12:28:58;;;;;;;6.75;3.55;;;19.50;66.70;;;;;;5135231;27;20111;-75
2022/10/20 12:31:44;;;;;;;10.10;3.30;;;19.50;67.20;;;;;;5135503;27;20019;-76
2022/10/20 12:34:21;;;;;;;;;;;19.40;67.70;;;;;;5134659;27;20034;-78
2022/10/20 12:36:47;;;;;;;12.35;4.38;;;19.40;69.30;;;;;;5135148;27;19907;-76
2022/10/20 12:39:23;;;;;;;7.00;3.90;;;19.40;70.00;;;;;;5135044;27;20034;-79
2022/10/20 12:42:02;;;;;;;12.80;3.78;;;19.40;69.80;;;;;;5135162;27;20055;-79
2022/10/20 12:44:54;;;;;;;9.80;3.47;;;19.30;69.60;;;;;;5135201;27;20039;-78
2022/10/20 12:47:30;;;;;;;10.23;3.95;;;19.40;70.70;;;;;;5133800;27;20032;-78
2022/10/20 12:50:07;;;;;;;8.23;3.60;;;19.50;70.70;;;;;;5135363;27;20087;-79
2022/10/20 12:52:36;;;;;;;6.20;3.75;;;19.50;70.60;;;;;;5134519;27;20134;-76
2022/10/20 12:55:16;;;;;;;9.52;3.95;;;19.60;70.40;;;;;;5135073;27;20050;-76
2022/10/20 12:57:45;;;;;;;6.35;4.15;;;19.60;69.40;;;;;;5135279;27;20037;-77
2022/10/20 13:00:20;;;;;;;12.20;4.32;;;19.50;69.60;;;;;;5117166;27;20494;-77